Sibay, Russia
Current Conditions -  °F | °C
As of 8:30 AM on Sunday 25 Jan 2015 (Local Time) from USCM Reporting Station
Broken Clouds Broken Clouds  
Wind Chill: -15°   Ceiling: 10000
Heat Index: -15°   Visibility: 5mi
Dew Point: -22°   Wind: 2mph
Humidity: 70%   Direction: NA
Pressure: 30.8"   Gusts: NA
Location:  52.7°N, 58.65°E
Report Text: USCM 250330Z VRB01MPS 8000 BKN100 M26/M30 Q1043 TEMPO 1100 BRVV005 19090060 RMK QFE744
Loading
Personal Weather Stations






























Interactive Weather Map New forecast layout! Learn more

10-Day Weather Forecast

Advertisements
Track Severe Weather on mobile